SLTR

Teniente Av. Jorge Henrich Arauz Airport

Trinidad, Bolivia
TAF COR SLTR 151000Z 1512/1612 15010KT 9999 SCT015 BKN070 TX27/1520Z TN19 /1610Z BECMG 1518/1521 SCT017 SCT070
Issued Valid From Valid To
Aug-15 @ 10:00 UTC
(3 hours ago)
Aug-15 @ 12:00 UTC
(39 minutes ago)
Aug-16 @ 12:00 UTC
(in 23 hours)
Aug-15 @ 12:00 to Aug-15 @ 18:00
TAF COR SLTR 151000Z 1512/1612 15010KT 9999 SCT015 BKN070 TX27/1520Z TN19 /1610Z
Wind Visibility Clouds
150° at 10 knots 10,000+ meters
  • Scattered at 1,500' AGL
  • Broken at 7,000' AGL
Becoming Aug-15 @ 18:00 to Aug-16 @ 12:00
BECMG 1518/1521 SCT017 SCT070
Wind Visibility Clouds
150° at 10 knots 10,000+ meters
  • Scattered at 1,700' AGL
  • Scattered at 7,000' AGL
TAF COR SLTR 151000Z 1512/1612 15010KT 9999 SCT015 BKN070 TX27/1520Z TN19 /1610Z BECMG 1518/1521 SCT017 SCT070
Issued Aug-15 @ 10:00 UTC
(3 hours ago)
Valid From Aug-15 @ 12:00 UTC
(39 minutes ago)
Valid To Aug-16 @ 12:00 UTC
(in 23 hours)
Aug-15 @ 12:00 - Aug-15 @ 18:00
Wind Visibility
150° at 10 knots 10,000+ meters
Clouds
  • Scattered at 1,500' AGL
  • Broken at 7,000' AGL
Becoming Aug-15 @ 18:00 - Aug-16 @ 12:00
Wind Visibility
150° at 10 knots 10,000+ meters
Clouds
  • Scattered at 1,700' AGL
  • Scattered at 7,000' AGL